Time,TemperatureF,DewpointF,PressureIn,WindDirection,WindDirectionDegrees,WindSpeedMPH,WindSpeedGustMPH,Humidity,HourlyPrecipIn,Conditions,Clouds,dailyrainin,SoftwareType,DateUTC
2013-06-25 00:03:00,72.6,70.0,30.14,South,175,0.0,-999.0,91,-99.99,,,0.00,weatherlink.com 1.10,2013-06-25 04:03:00,
2013-06-25 00:18:00,72.3,70.0,30.14,South,179,0.0,-999.0,91,-99.99,,,0.00,weatherlink.com 1.10,2013-06-25 04:18:00,
2013-06-25 00:33:00,72.2,70.0,30.15,South,191,0.0,-999.0,91,-99.99,,,0.00,weatherlink.com 1.10,2013-06-25 04:33:00,
2013-06-25 00:48:00,72.1,69.0,30.15,South,188,0.0,-999.0,91,-99.99,,,0.00,weatherlink.com 1.10,2013-06-25 04:48:00,
2013-06-25 01:03:00,71.9,69.0,30.15,South,184,0.0,-999.0,91,-99.99,,,0.00,weatherlink.com 1.10,2013-06-25 05:03:00,
2013-06-25 01:18:00,71.9,69.0,30.15,SSE,158,0.0,-999.0,91,-99.99,,,0.00,weatherlink.com 1.10,2013-06-25 05:18:00,
2013-06-25 01:33:00,71.9,69.0,30.15,South,188,0.0,-999.0,91,-99.99,,,0.00,weatherlink.com 1.10,2013-06-25 05:33:00,
2013-06-25 01:48:00,71.9,69.0,30.14,SSW,195,0.0,-999.0,91,-99.99,,,0.00,weatherlink.com 1.10,2013-06-25 05:48:00,
2013-06-25 02:03:00,71.7,69.0,30.14,SSW,211,0.0,-999.0,90,-99.99,,,0.00,weatherlink.com 1.10,2013-06-25 06:03:00,
2013-06-25 02:18:00,71.6,69.0,30.14,SSW,212,0.0,-999.0,90,-99.99,,,0.00,weatherlink.com 1.10,2013-06-25 06:18:00,
2013-06-25 02:33:00,71.7,69.0,30.14,South,182,0.0,-999.0,90,-99.99,,,0.00,weatherlink.com 1.10,2013-06-25 06:33:00,
2013-06-25 02:48:00,71.8,69.0,30.14,South,179,0.0,-999.0,90,-99.99,,,0.00,weatherlink.com 1.10,2013-06-25 06:48:00,
2013-06-25 03:03:00,71.9,69.0,30.14,SSW,200,0.0,-999.0,90,-99.99,,,0.00,weatherlink.com 1.10,2013-06-25 07:03:00,
2013-06-25 03:18:00,72.1,69.0,30.13,WSW,247,0.0,-999.0,90,-99.99,,,0.00,weatherlink.com 1.10,2013-06-25 07:18:00,
2013-06-25 03:33:00,72.4,69.0,30.13,SSW,209,0.0,-999.0,90,-99.99,,,0.00,weatherlink.com 1.10,2013-06-25 07:33:00,
2013-06-25 03:48:00,72.6,70.0,30.13,SW,236,0.0,-999.0,90,-99.99,,,0.00,weatherlink.com 1.10,2013-06-25 07:48:00,
2013-06-25 04:03:00,72.8,70.0,30.13,WSW,252,0.0,-999.0,90,-99.99,,,0.00,weatherlink.com 1.10,2013-06-25 08:03:00,
2013-06-25 04:18:00,72.8,70.0,30.13,West,261,0.0,-999.0,91,-99.99,,,0.00,weatherlink.com 1.10,2013-06-25 08:18:00,
2013-06-25 04:33:00,72.7,70.0,30.14,WSW,258,0.0,-999.0,91,-99.99,,,0.00,weatherlink.com 1.10,2013-06-25 08:33:00,
2013-06-25 04:48:00,72.6,70.0,30.13,WSW,240,2.0,-999.0,91,-99.99,,,0.00,weatherlink.com 1.10,2013-06-25 08:48:00,
2013-06-25 05:03:00,72.7,70.0,30.13,SSW,210,5.0,-999.0,91,-99.99,,,0.00,weatherlink.com 1.10,2013-06-25 09:03:00,
2013-06-25 05:18:00,72.6,70.0,30.14,SW,219,0.0,-999.0,91,-99.99,,,0.00,weatherlink.com 1.10,2013-06-25 09:18:00,
2013-06-25 05:33:00,72.7,70.0,30.14,SW,234,0.0,-999.0,91,-99.99,,,0.00,weatherlink.com 1.10,2013-06-25 09:33:00,
2013-06-25 05:48:00,72.7,70.0,30.14,West,260,2.0,-999.0,91,-99.99,,,0.00,weatherlink.com 1.10,2013-06-25 09:48:00,
2013-06-25 06:03:00,72.7,70.0,30.14,WSW,251,0.0,-999.0,91,-99.99,,,0.00,weatherlink.com 1.10,2013-06-25 10:03:00,
2013-06-25 06:18:00,72.7,70.0,30.14,West,281,0.0,-999.0,91,-99.99,,,0.00,weatherlink.com 1.10,2013-06-25 10:18:00,
2013-06-25 06:33:00,72.6,70.0,30.14,SW,233,0.0,-999.0,92,-99.99,,,0.00,weatherlink.com 1.10,2013-06-25 10:33:00,
2013-06-25 06:48:00,72.5,70.0,30.15,SW,230,0.0,-999.0,91,-99.99,,,0.00,weatherlink.com 1.10,2013-06-25 10:48:00,
2013-06-25 07:03:00,72.4,70.0,30.15,West,281,0.0,-999.0,91,-99.99,,,0.00,weatherlink.com 1.10,2013-06-25 11:03:00,
2013-06-25 07:18:00,72.5,70.0,30.15,WSW,243,0.0,-999.0,91,-99.99,,,0.00,weatherlink.com 1.10,2013-06-25 11:18:00,
2013-06-25 07:33:00,72.7,70.0,30.15,West,262,0.0,-999.0,92,-99.99,,,0.00,weatherlink.com 1.10,2013-06-25 11:33:00,
2013-06-25 07:48:00,72.9,70.0,30.15,West,268,0.0,-999.0,91,-99.99,,,0.00,weatherlink.com 1.10,2013-06-25 11:48:00,
2013-06-25 08:03:00,73.3,71.0,30.16,West,265,0.0,-999.0,91,-99.99,,,0.00,weatherlink.com 1.10,2013-06-25 12:03:00,
2013-06-25 08:18:00,73.7,71.0,30.16,WSW,249,0.0,-999.0,91,-99.99,,,0.00,weatherlink.com 1.10,2013-06-25 12:18:00,
2013-06-25 08:33:00,74.3,71.0,30.16,WSW,239,0.0,-999.0,90,-99.99,,,0.00,weatherlink.com 1.10,2013-06-25 12:33:00,
2013-06-25 08:48:00,74.5,71.0,30.16,SW,234,0.0,-999.0,89,-99.99,,,0.00,weatherlink.com 1.10,2013-06-25 12:48:00,
2013-06-25 09:03:00,75.0,72.0,30.16,SW,219,4.0,-999.0,89,-99.99,,,0.00,weatherlink.com 1.10,2013-06-25 13:03:00,
2013-06-25 09:18:00,75.8,72.0,30.16,WSW,243,0.0,-999.0,88,-99.99,,,0.00,weatherlink.com 1.10,2013-06-25 13:18:00,
2013-06-25 09:33:00,76.6,73.0,30.17,WSW,245,0.0,-999.0,87,-99.99,,,0.00,weatherlink.com 1.10,2013-06-25 13:33:00,
2013-06-25 09:48:00,77.1,73.0,30.17,West,277,0.0,-999.0,86,-99.99,,,0.00,weatherlink.com 1.10,2013-06-25 13:48:00,
2013-06-25 10:03:00,77.7,73.0,30.16,NW,316,0.0,-999.0,86,-99.99,,,0.00,weatherlink.com 1.10,2013-06-25 14:03:00,
2013-06-25 10:18:00,77.4,73.0,30.16,West,277,0.0,-999.0,85,-99.99,,,0.00,weatherlink.com 1.10,2013-06-25 14:18:00,
2013-06-25 10:33:00,77.5,72.0,30.16,SSW,205,0.0,-999.0,84,-99.99,,,0.00,weatherlink.com 1.10,2013-06-25 14:33:00,
2013-06-25 10:48:00,78.2,73.0,30.16,SSW,199,0.0,-999.0,83,-99.99,,,0.00,weatherlink.com 1.10,2013-06-25 14:48:00,
2013-06-25 11:03:00,78.7,72.0,30.16,WSW,252,0.0,-999.0,81,-99.99,,,0.00,weatherlink.com 1.10,2013-06-25 15:03:00,
2013-06-25 11:18:00,79.4,72.0,30.15,WSW,252,0.0,-999.0,79,-99.99,,,0.00,weatherlink.com 1.10,2013-06-25 15:18:00,
2013-06-25 11:33:00,79.5,73.0,30.15,WSW,249,0.0,-999.0,80,-99.99,,,0.00,weatherlink.com 1.10,2013-06-25 15:33:00,
2013-06-25 11:48:00,80.4,73.0,30.15,SSW,212,0.0,-999.0,79,-99.99,,,0.00,weatherlink.com 1.10,2013-06-25 15:48:00,
2013-06-25 12:03:00,80.7,73.0,30.15,SW,222,0.0,-999.0,77,-99.99,,,0.00,weatherlink.com 1.10,2013-06-25 16:03:00,
2013-06-25 12:18:00,80.9,73.0,30.15,North,360,0.0,-999.0,76,-99.99,,,0.00,weatherlink.com 1.10,2013-06-25 16:18:00,
2013-06-25 12:33:00,80.9,72.0,30.15,WSW,252,0.0,-999.0,75,-99.99,,,0.00,weatherlink.com 1.10,2013-06-25 16:33:00,
2013-06-25 12:48:00,81.9,73.0,30.14,West,259,0.0,-999.0,74,-99.99,,,0.00,weatherlink.com 1.10,2013-06-25 16:48:00,
2013-06-25 13:03:00,81.8,72.0,30.14,West,267,0.0,-999.0,73,-99.99,,,0.00,weatherlink.com 1.10,2013-06-25 17:03:00,
2013-06-25 13:18:00,81.8,72.0,30.14,West,267,0.0,-999.0,73,-99.99,,,0.00,weatherlink.com 1.10,2013-06-25 17:18:00,
2013-06-25 13:33:00,82.1,73.0,30.13,WNW,292,0.0,-999.0,74,-99.99,,,0.00,weatherlink.com 1.10,2013-06-25 17:33:00,
2013-06-25 13:48:00,81.7,73.0,30.13,NNW,331,0.0,-999.0,75,-99.99,,,0.00,weatherlink.com 1.10,2013-06-25 17:48:00,
2013-06-25 14:03:00,81.0,73.0,30.13,NW,321,0.0,-999.0,77,-99.99,,,0.00,weatherlink.com 1.10,2013-06-25 18:03:00,
2013-06-25 14:18:00,82.2,72.0,30.12,NW,309,0.0,-999.0,72,-99.99,,,0.00,weatherlink.com 1.10,2013-06-25 18:18:00,
2013-06-25 14:33:00,83.8,73.0,30.11,North,360,0.0,-999.0,71,-99.99,,,0.00,weatherlink.com 1.10,2013-06-25 18:33:00,
2013-06-25 14:48:00,82.3,74.0,30.11,NNW,341,0.0,-999.0,75,-99.99,,,0.00,weatherlink.com 1.10,2013-06-25 18:48:00,
2013-06-25 15:03:00,83.4,73.0,30.11,NW,315,0.0,-999.0,70,-99.99,,,0.00,weatherlink.com 1.10,2013-06-25 19:03:00,
2013-06-25 15:18:00,84.7,73.0,30.10,WNW,303,0.0,-999.0,68,-99.99,,,0.00,weatherlink.com 1.10,2013-06-25 19:18:00,
2013-06-25 15:33:00,85.7,74.0,30.10,NW,324,0.0,-999.0,67,-99.99,,,0.00,weatherlink.com 1.10,2013-06-25 19:33:00,
2013-06-25 15:48:00,84.7,73.0,30.09,NNW,342,0.0,-999.0,67,-99.99,,,0.00,weatherlink.com 1.10,2013-06-25 19:48:00,
2013-06-25 16:03:00,85.8,73.0,30.09,WNW,298,0.0,-999.0,65,-99.99,,,0.00,weatherlink.com 1.10,2013-06-25 20:03:00,
2013-06-25 16:18:00,84.7,75.0,30.09,South,178,0.0,-999.0,72,-99.99,,,0.00,weatherlink.com 1.10,2013-06-25 20:18:00,
2013-06-25 16:33:00,82.8,75.0,30.08,South,191,0.0,-999.0,77,-99.99,,,0.00,weatherlink.com 1.10,2013-06-25 20:33:00,
2013-06-25 16:48:00,84.4,75.0,30.07,SE,138,0.0,-999.0,74,-99.99,,,0.00,weatherlink.com 1.10,2013-06-25 20:48:00,
2013-06-25 17:04:00,84.7,74.0,30.07,SSW,194,0.0,-999.0,71,-99.99,,,0.00,weatherlink.com 1.10,2013-06-25 21:04:00,
2013-06-25 17:19:00,83.4,74.0,30.06,South,178,0.0,-999.0,73,-99.99,,,0.00,weatherlink.com 1.10,2013-06-25 21:19:00,
2013-06-25 17:34:00,83.3,74.0,30.06,ESE,118,0.0,-999.0,74,-99.99,,,0.00,weatherlink.com 1.10,2013-06-25 21:34:00,
2013-06-25 17:49:00,83.0,74.0,30.06,South,188,0.0,-999.0,74,-99.99,,,0.00,weatherlink.com 1.10,2013-06-25 21:49:00,
2013-06-25 18:04:00,81.6,75.0,30.06,West,259,0.0,-999.0,79,-99.99,,,0.00,weatherlink.com 1.10,2013-06-25 22:04:00,
2013-06-25 18:19:00,78.3,75.0,30.05,West,275,0.0,-999.0,88,-99.99,,,0.04,weatherlink.com 1.10,2013-06-25 22:19:00,
2013-06-25 18:34:00,77.6,75.0,30.05,West,275,0.0,-999.0,90,-99.99,,,0.06,weatherlink.com 1.10,2013-06-25 22:34:00,
2013-06-25 18:49:00,77.4,75.0,30.05,ENE,62,0.0,-999.0,91,-99.99,,,0.07,weatherlink.com 1.10,2013-06-25 22:49:00,
2013-06-25 19:04:00,77.2,75.0,30.04,ENE,65,0.0,-999.0,91,-99.99,,,0.08,weatherlink.com 1.10,2013-06-25 23:04:00,
2013-06-25 19:19:00,77.6,75.0,30.04,South,190,0.0,-999.0,91,-99.99,,,0.08,weatherlink.com 1.10,2013-06-25 23:19:00,
2013-06-25 19:34:00,77.0,74.0,30.04,South,190,0.0,-999.0,91,-99.99,,,0.08,weatherlink.com 1.10,2013-06-25 23:34:00,
2013-06-25 19:49:00,77.2,75.0,30.05,South,190,0.0,-999.0,91,-99.99,,,0.08,weatherlink.com 1.10,2013-06-25 23:49:00,
2013-06-25 20:04:00,76.8,74.0,30.05,SSE,165,0.0,-999.0,90,-99.99,,,0.09,weatherlink.com 1.10,2013-06-26 00:04:00,
2013-06-25 20:19:00,77.1,74.0,30.05,South,188,0.0,-999.0,89,-99.99,,,0.09,weatherlink.com 1.10,2013-06-26 00:19:00,
2013-06-25 20:34:00,76.8,73.0,30.05,South,188,0.0,-999.0,89,-99.99,,,0.09,weatherlink.com 1.10,2013-06-26 00:34:00,
2013-06-25 20:49:00,76.4,73.0,30.05,South,188,0.0,-999.0,90,-99.99,,,0.09,weatherlink.com 1.10,2013-06-26 00:49:00,
2013-06-25 21:04:00,75.6,73.0,30.05,South,187,0.0,-999.0,91,-99.99,,,0.09,weatherlink.com 1.10,2013-06-26 01:04:00,
2013-06-25 21:19:00,74.9,72.0,30.05,South,188,0.0,-999.0,91,-99.99,,,0.10,weatherlink.com 1.10,2013-06-26 01:19:00,
2013-06-25 21:34:00,74.4,72.0,30.05,South,185,0.0,-999.0,91,-99.99,,,0.10,weatherlink.com 1.10,2013-06-26 01:34:00,
2013-06-25 21:49:00,74.2,72.0,30.05,South,173,0.0,-999.0,91,-99.99,,,0.10,weatherlink.com 1.10,2013-06-26 01:49:00,
2013-06-25 22:04:00,74.2,72.0,30.05,South,184,0.0,-999.0,91,-99.99,,,0.10,weatherlink.com 1.10,2013-06-26 02:04:00,
2013-06-25 22:20:00,73.9,71.0,30.06,South,184,0.0,-999.0,91,-99.99,,,0.10,weatherlink.com 1.10,2013-06-26 02:20:00,
2013-06-25 22:34:00,74.0,71.0,30.05,South,184,0.0,-999.0,91,-99.99,,,0.10,weatherlink.com 1.10,2013-06-26 02:34:00,
2013-06-25 22:49:00,73.7,71.0,30.06,South,184,0.0,-999.0,91,-99.99,,,0.10,weatherlink.com 1.10,2013-06-26 02:49:00,
2013-06-25 23:04:00,73.7,71.0,30.06,SSW,196,0.0,-999.0,91,-99.99,,,0.10,weatherlink.com 1.10,2013-06-26 03:04:00,
2013-06-25 23:19:00,74.0,71.0,30.06,SSW,192,0.0,-999.0,91,-99.99,,,0.10,weatherlink.com 1.10,2013-06-26 03:19:00,
2013-06-25 23:34:00,73.8,71.0,30.06,SSW,192,0.0,-999.0,91,-99.99,,,0.10,weatherlink.com 1.10,2013-06-26 03:34:00,
2013-06-25 23:49:00,73.8,71.0,30.06,SSW,192,0.0,-999.0,91,-99.99,,,0.10,weatherlink.com 1.10,2013-06-26 03:49:00,